createdAt,value
2022-12-29T00:00:13.654Z,8.76
2022-12-29T00:03:15.330Z,9.29
2022-12-29T00:06:16.982Z,9.03
2022-12-29T00:09:18.574Z,8.95
2022-12-29T00:12:20.080Z,8.76
2022-12-29T00:15:39.994Z,8.68
2022-12-29T00:18:41.590Z,8.59
2022-12-29T00:22:01.586Z,8.55
2022-12-29T00:25:22.357Z,9.21
2022-12-29T00:28:42.533Z,9.55
2022-12-29T00:32:16.360Z,9.24
2022-12-29T00:35:39.486Z,10.00
2022-12-29T00:39:01.127Z,9.68
2022-12-29T00:42:39.025Z,9.24
2022-12-29T00:45:42.203Z,9.76
2022-12-29T00:49:02.411Z,10.09
2022-12-29T00:52:05.900Z,10.23
2022-12-29T00:55:07.646Z,10.44
2022-12-29T00:58:09.148Z,10.02
2022-12-29T01:01:10.958Z,10.18
2022-12-29T01:04:12.749Z,10.20
2022-12-29T01:07:14.311Z,10.01
2022-12-29T01:10:16.199Z,9.87
2022-12-29T01:13:17.731Z,10.39
2022-12-29T01:16:19.494Z,10.54
2022-12-29T01:19:21.127Z,10.51
2022-12-29T01:22:22.615Z,10.74
2022-12-29T01:25:24.206Z,10.38
2022-12-29T01:28:26.338Z,10.36
2022-12-29T01:31:28.057Z,10.10
2022-12-29T01:34:29.827Z,10.09
2022-12-29T01:37:31.348Z,10.14
2022-12-29T01:40:32.925Z,10.45
2022-12-29T01:43:44.970Z,10.59
2022-12-29T01:46:46.987Z,10.46
2022-12-29T01:49:48.539Z,10.58
2022-12-29T01:53:17.415Z,10.49
2022-12-29T01:56:19.926Z,10.48
2022-12-29T01:59:23.968Z,10.57
2022-12-29T02:02:25.627Z,10.78
2022-12-29T02:05:29.280Z,10.57
2022-12-29T02:08:30.788Z,10.44
2022-12-29T02:11:32.291Z,10.19
2022-12-29T02:14:34.882Z,10.49
2022-12-29T02:17:41.074Z,10.48
2022-12-29T02:21:01.002Z,10.44
2022-12-29T02:24:24.950Z,10.23
2022-12-29T02:28:08.269Z,10.08
2022-12-29T02:31:42.333Z,10.28
2022-12-29T02:34:59.076Z,10.26
2022-12-29T02:38:12.257Z,10.33
2022-12-29T02:41:19.562Z,10.09
2022-12-29T02:44:28.075Z,10.14
2022-12-29T02:47:44.934Z,10.10
2022-12-29T02:50:54.179Z,9.99
2022-12-29T02:54:14.307Z,9.98
2022-12-29T02:57:36.151Z,10.25
2022-12-29T03:00:39.152Z,10.24
2022-12-29T03:04:11.614Z,10.38
2022-12-29T03:07:27.642Z,10.22
2022-12-29T03:11:00.502Z,10.40
2022-12-29T03:14:25.802Z,10.17
2022-12-29T03:17:41.760Z,9.79
2022-12-29T03:20:48.757Z,9.78
2022-12-29T03:23:51.091Z,9.62
2022-12-29T03:26:52.538Z,9.64
2022-12-29T03:29:56.002Z,9.70
2022-12-29T03:32:59.952Z,9.79
2022-12-29T03:36:04.190Z,9.84
2022-12-29T03:39:15.164Z,9.81
2022-12-29T03:42:19.867Z,9.88
2022-12-29T03:45:24.256Z,9.94
2022-12-29T03:48:25.807Z,9.91
2022-12-29T03:51:27.380Z,9.92
2022-12-29T03:54:28.929Z,9.88
2022-12-29T03:57:30.439Z,9.75
2022-12-29T04:00:32.019Z,9.81
2022-12-29T04:03:33.691Z,9.71
2022-12-29T04:06:36.132Z,9.88
2022-12-29T04:09:37.691Z,10.19
2022-12-29T04:12:39.244Z,9.94
2022-12-29T04:15:40.831Z,9.78
2022-12-29T04:18:42.463Z,10.07
2022-12-29T04:21:43.991Z,9.89
2022-12-29T04:24:45.533Z,10.02
2022-12-29T04:27:47.018Z,10.01
2022-12-29T04:30:48.831Z,9.83
2022-12-29T04:33:50.428Z,9.70
2022-12-29T04:36:51.998Z,9.76
2022-12-29T04:39:53.592Z,9.75
2022-12-29T04:42:55.114Z,9.57
2022-12-29T04:45:56.706Z,9.32
2022-12-29T04:48:58.294Z,9.38
2022-12-29T04:51:59.793Z,9.36
2022-12-29T04:55:01.446Z,9.38
2022-12-29T04:58:02.980Z,9.44
2022-12-29T05:01:04.494Z,9.74
2022-12-29T05:04:06.068Z,9.51
2022-12-29T05:07:07.595Z,9.55
2022-12-29T05:10:09.349Z,9.37
2022-12-29T05:13:10.855Z,9.53
2022-12-29T05:16:12.470Z,9.53
2022-12-29T05:19:14.071Z,9.75
2022-12-29T05:22:16.070Z,9.80
2022-12-29T05:25:19.991Z,9.75
2022-12-29T05:28:21.558Z,9.46
2022-12-29T05:31:23.149Z,9.59
2022-12-29T05:34:24.830Z,9.58
2022-12-29T05:37:26.348Z,9.53
2022-12-29T05:40:27.884Z,9.51
2022-12-29T05:43:29.431Z,9.56
2022-12-29T05:46:31.145Z,9.56
2022-12-29T05:49:33.342Z,9.54
2022-12-29T05:52:35.192Z,10.06
2022-12-29T05:55:36.711Z,9.77
2022-12-29T05:58:38.279Z,9.84
2022-12-29T06:01:39.861Z,9.72
2022-12-29T06:04:41.439Z,9.90
2022-12-29T06:07:43.099Z,10.02
2022-12-29T06:10:44.708Z,9.95
2022-12-29T06:13:46.218Z,9.72
2022-12-29T06:16:47.803Z,9.62
2022-12-29T06:19:49.375Z,9.62
2022-12-29T06:22:50.897Z,9.85
2022-12-29T06:25:52.444Z,9.73
2022-12-29T06:28:53.996Z,9.54
2022-12-29T06:31:59.043Z,9.68
2022-12-29T06:35:00.711Z,9.59
2022-12-29T06:38:02.220Z,9.39
2022-12-29T06:41:03.834Z,9.17
2022-12-29T06:44:05.412Z,9.74
2022-12-29T06:47:06.962Z,9.99
2022-12-29T06:50:09.176Z,9.79
2022-12-29T06:53:10.697Z,9.53
2022-12-29T06:56:12.223Z,9.45
2022-12-29T06:59:13.824Z,9.26
2022-12-29T07:02:17.708Z,9.11
2022-12-29T07:05:19.313Z,9.09
2022-12-29T07:08:21.082Z,9.14
2022-12-29T07:11:22.621Z,9.16
2022-12-29T07:14:24.179Z,9.79
2022-12-29T07:17:25.764Z,10.00
2022-12-29T07:20:27.467Z,10.08
2022-12-29T07:23:29.054Z,9.76
2022-12-29T07:26:36.148Z,9.58
2022-12-29T07:29:38.655Z,9.43
2022-12-29T07:32:40.147Z,9.63
2022-12-29T07:35:41.672Z,10.52
2022-12-29T07:38:43.341Z,10.20
2022-12-29T07:41:44.905Z,10.27
2022-12-29T07:44:46.474Z,10.55
2022-12-29T07:47:51.079Z,10.62
2022-12-29T07:50:53.074Z,10.94
2022-12-29T07:53:54.590Z,10.56
2022-12-29T07:56:56.161Z,10.81
2022-12-29T07:59:57.687Z,10.91
2022-12-29T08:02:59.277Z,10.90
2022-12-29T08:06:00.855Z,10.78
2022-12-29T08:09:11.094Z,10.81
2022-12-29T08:12:16.498Z,10.73
2022-12-29T08:15:18.136Z,10.63
2022-12-29T08:18:19.643Z,10.74
2022-12-29T08:21:21.169Z,10.82
2022-12-29T08:24:22.715Z,11.10
2022-12-29T08:27:24.227Z,11.05
2022-12-29T08:30:25.785Z,10.97
2022-12-29T08:33:27.392Z,11.11
2022-12-29T08:36:28.958Z,11.02
2022-12-29T08:39:30.531Z,10.96
2022-12-29T08:42:32.480Z,11.04
2022-12-29T08:45:34.307Z,10.98
2022-12-29T08:48:35.848Z,11.00
2022-12-29T08:51:37.735Z,10.94
2022-12-29T08:54:39.285Z,11.17
2022-12-29T08:57:40.831Z,11.12
2022-12-29T09:00:43.146Z,11.14
2022-12-29T09:07:06.668Z,11.15
2022-12-29T09:10:08.385Z,11.03
2022-12-29T09:13:10.128Z,10.92
2022-12-29T09:16:11.759Z,10.90
2022-12-29T09:19:13.351Z,11.05
2022-12-29T09:22:14.869Z,11.04
2022-12-29T09:25:16.596Z,10.92
2022-12-29T09:28:18.102Z,11.09
2022-12-29T09:31:19.670Z,10.98
2022-12-29T09:34:21.294Z,11.03
2022-12-29T09:37:22.883Z,11.10
2022-12-29T09:40:31.070Z,11.27
2022-12-29T09:43:49.599Z,11.39
2022-12-29T09:46:52.088Z,11.28
2022-12-29T09:50:33.381Z,11.29
2022-12-29T09:53:40.323Z,11.34
2022-12-29T09:56:41.874Z,11.32
2022-12-29T09:59:43.789Z,11.38
2022-12-29T10:03:21.859Z,11.44
2022-12-29T10:06:23.350Z,11.44
2022-12-29T10:09:27.814Z,11.49
2022-12-29T10:12:48.195Z,11.53
2022-12-29T10:15:58.642Z,11.53
2022-12-29T10:19:33.443Z,11.48
2022-12-29T10:22:50.246Z,11.49
2022-12-29T10:25:51.780Z,11.49
2022-12-29T10:28:58.059Z,11.41
2022-12-29T10:32:01.172Z,11.35
2022-12-29T10:35:22.546Z,11.34
2022-12-29T10:38:30.201Z,11.21
2022-12-29T10:41:38.106Z,11.25
2022-12-29T10:44:39.659Z,11.22
2022-12-29T10:47:52.871Z,11.22
2022-12-29T10:51:01.440Z,11.98
2022-12-29T10:54:12.441Z,11.91
2022-12-29T10:57:37.618Z,11.46
2022-12-29T11:00:39.178Z,11.40
2022-12-29T11:03:46.797Z,11.36
2022-12-29T11:06:48.364Z,11.46
2022-12-29T11:09:49.921Z,11.22
2022-12-29T11:12:58.781Z,11.23
2022-12-29T11:16:01.939Z,11.09
2022-12-29T11:19:03.661Z,10.98
2022-12-29T11:22:26.156Z,10.88
2022-12-29T11:25:27.548Z,10.77
2022-12-29T11:28:31.592Z,10.75
2022-12-29T11:31:43.385Z,10.75
2022-12-29T11:34:44.986Z,10.69
2022-12-29T11:37:46.514Z,10.75
2022-12-29T11:40:48.067Z,10.79
2022-12-29T11:43:49.654Z,10.76
2022-12-29T11:46:52.200Z,10.83
2022-12-29T11:49:55.044Z,10.89
2022-12-29T11:53:05.682Z,10.89
2022-12-29T11:56:09.833Z,10.82
2022-12-29T11:59:32.751Z,10.76
2022-12-29T12:02:42.479Z,10.74
2022-12-29T12:05:56.879Z,10.81
2022-12-29T12:09:04.407Z,10.72
2022-12-29T12:12:05.960Z,10.83
2022-12-29T12:15:13.751Z,10.63
2022-12-29T12:18:31.607Z,10.60
2022-12-29T12:21:33.665Z,10.64
2022-12-29T12:24:35.037Z,10.58
2022-12-29T12:27:43.273Z,10.59
2022-12-29T12:30:46.947Z,10.53
2022-12-29T12:33:50.396Z,10.44
2022-12-29T12:36:58.977Z,10.56
2022-12-29T12:40:25.733Z,10.44
2022-12-29T12:43:34.707Z,10.44
2022-12-29T12:47:10.408Z,10.52
2022-12-29T12:50:23.792Z,10.48
2022-12-29T12:53:27.459Z,10.53
2022-12-29T12:56:53.242Z,10.52
2022-12-29T13:00:24.438Z,10.45
2022-12-29T13:03:46.231Z,10.51
2022-12-29T13:07:14.108Z,10.41
2022-12-29T13:10:18.567Z,10.39
2022-12-29T13:13:25.844Z,10.43
2022-12-29T13:16:32.754Z,10.42
2022-12-29T13:19:46.442Z,10.45
2022-12-29T13:23:03.425Z,10.41
2022-12-29T13:26:10.946Z,10.48
2022-12-29T13:29:32.789Z,10.41
2022-12-29T13:32:43.281Z,10.46
2022-12-29T13:36:13.869Z,10.35
2022-12-29T13:39:22.387Z,10.22
2022-12-29T13:42:23.920Z,10.09
2022-12-29T13:45:26.303Z,10.00
2022-12-29T13:49:00.328Z,9.97
2022-12-29T13:52:19.504Z,9.94
2022-12-29T13:55:50.730Z,10.06
2022-12-29T13:59:04.748Z,9.99
2022-12-29T14:02:17.371Z,9.94
2022-12-29T14:05:18.913Z,10.21
2022-12-29T14:08:21.371Z,10.11
2022-12-29T14:11:25.800Z,10.12
2022-12-29T14:14:29.868Z,10.13
2022-12-29T14:17:31.406Z,10.04
2022-12-29T14:20:33.051Z,9.99
2022-12-29T14:23:42.304Z,9.97
2022-12-29T14:26:43.851Z,9.92
2022-12-29T14:29:46.545Z,9.90
2022-12-29T14:33:02.250Z,9.89
2022-12-29T14:36:19.485Z,9.82
2022-12-29T14:39:41.294Z,9.96
2022-12-29T14:42:42.964Z,10.16
2022-12-29T14:45:44.529Z,10.15
2022-12-29T14:48:46.094Z,10.14
2022-12-29T14:51:48.380Z,10.11
2022-12-29T14:54:58.022Z,10.19
2022-12-29T14:58:02.729Z,10.14
2022-12-29T15:01:04.349Z,10.19
2022-12-29T15:04:18.441Z,10.46
2022-12-29T15:07:20.021Z,10.28
2022-12-29T15:10:23.909Z,10.01
2022-12-29T15:13:33.315Z,9.89
2022-12-29T15:16:37.643Z,9.57
2022-12-29T15:19:39.609Z,9.48
2022-12-29T15:22:49.863Z,9.26
2022-12-29T15:25:59.372Z,9.05
2022-12-29T15:29:01.054Z,8.84
2022-12-29T15:32:16.553Z,8.66
2022-12-29T15:35:29.151Z,8.56
2022-12-29T15:38:37.114Z,8.37
2022-12-29T15:42:01.467Z,8.33
2022-12-29T15:45:11.371Z,8.27
2022-12-29T15:48:22.318Z,8.20
2022-12-29T15:51:32.056Z,8.04
2022-12-29T15:54:33.766Z,8.02
2022-12-29T15:57:39.389Z,7.90
2022-12-29T16:00:40.976Z,7.93
2022-12-29T16:03:42.625Z,7.87
2022-12-29T16:06:58.731Z,7.82
2022-12-29T16:10:01.301Z,7.83
2022-12-29T16:13:22.923Z,7.78
2022-12-29T16:16:32.691Z,7.61
2022-12-29T16:19:38.518Z,7.58
2022-12-29T16:22:41.054Z,7.57
2022-12-29T16:25:42.616Z,7.55
2022-12-29T16:28:44.138Z,7.53
2022-12-29T16:32:01.580Z,7.50
2022-12-29T16:35:46.758Z,7.49
2022-12-29T16:38:48.250Z,7.43
2022-12-29T16:41:50.807Z,7.35
2022-12-29T16:44:53.478Z,7.28
2022-12-29T16:48:07.222Z,7.20
2022-12-29T16:51:20.971Z,7.16
2022-12-29T16:54:35.827Z,7.16
2022-12-29T16:57:37.370Z,7.12
2022-12-29T17:00:38.927Z,7.11
2022-12-29T17:03:42.317Z,7.09
2022-12-29T17:06:43.891Z,7.11
2022-12-29T17:09:45.519Z,7.08
2022-12-29T17:12:48.147Z,7.08
2022-12-29T17:15:49.690Z,7.06
2022-12-29T17:18:51.299Z,7.01
2022-12-29T17:21:52.818Z,7.01
2022-12-29T17:24:55.327Z,7.00
2022-12-29T17:28:01.415Z,6.96
2022-12-29T17:31:03.814Z,6.99
2022-12-29T17:34:05.378Z,6.93
2022-12-29T17:37:25.380Z,6.92
2022-12-29T17:40:29.086Z,6.91
2022-12-29T17:43:36.775Z,6.93
2022-12-29T17:46:38.757Z,6.92
2022-12-29T17:49:40.373Z,6.92
2022-12-29T17:52:42.926Z,6.93
2022-12-29T17:55:44.492Z,6.94
2022-12-29T17:58:46.131Z,6.94
2022-12-29T18:01:48.346Z,6.97
2022-12-29T18:04:49.962Z,7.01
2022-12-29T18:07:52.149Z,6.98
2022-12-29T18:10:54.000Z,6.98
2022-12-29T18:13:55.632Z,6.98
2022-12-29T18:16:57.234Z,6.97
2022-12-29T18:19:58.750Z,6.96
2022-12-29T18:23:00.305Z,6.97
2022-12-29T18:26:12.579Z,6.98
2022-12-29T18:29:14.077Z,7.00
2022-12-29T18:32:15.968Z,7.00
2022-12-29T18:35:26.419Z,6.99
2022-12-29T18:38:28.023Z,6.98
2022-12-29T18:41:29.893Z,6.96
2022-12-29T18:44:31.607Z,6.95
2022-12-29T18:47:33.153Z,6.90
2022-12-29T18:50:34.680Z,6.87
2022-12-29T18:53:37.898Z,6.81
2022-12-29T18:56:39.493Z,6.84
2022-12-29T18:59:41.218Z,6.80
2022-12-29T19:02:43.578Z,6.69
2022-12-29T19:05:45.570Z,6.61
2022-12-29T19:08:47.146Z,6.57
2022-12-29T19:11:48.694Z,6.57
2022-12-29T19:14:50.251Z,6.50
2022-12-29T19:18:15.977Z,6.41
2022-12-29T19:21:13.749Z,6.41
2022-12-29T19:24:15.341Z,6.33
2022-12-29T19:27:16.827Z,6.27
2022-12-29T19:30:19.443Z,6.26
2022-12-29T19:33:21.631Z,6.24
2022-12-29T19:36:23.341Z,6.21
2022-12-29T19:39:24.929Z,6.16
2022-12-29T19:42:26.467Z,6.13
2022-12-29T19:45:27.976Z,6.12
2022-12-29T19:48:29.492Z,6.09
2022-12-29T19:51:31.096Z,6.11
2022-12-29T19:54:32.652Z,6.11
2022-12-29T19:57:34.206Z,6.09
2022-12-29T20:00:35.764Z,6.06
2022-12-29T20:03:38.596Z,6.06
2022-12-29T20:06:40.154Z,6.07
2022-12-29T20:09:41.660Z,6.07
2022-12-29T20:12:43.246Z,6.03
2022-12-29T20:15:44.797Z,6.00
2022-12-29T20:18:46.907Z,5.99
2022-12-29T20:21:48.930Z,5.93
2022-12-29T20:24:52.129Z,5.92
2022-12-29T20:27:57.889Z,5.92
2022-12-29T20:31:04.341Z,5.92
2022-12-29T20:34:05.979Z,5.91
2022-12-29T20:37:07.545Z,5.93
2022-12-29T20:40:09.112Z,5.91
2022-12-29T20:43:10.643Z,5.91
2022-12-29T20:46:18.153Z,5.89
2022-12-29T20:49:21.925Z,5.92
2022-12-29T20:52:23.455Z,5.90
2022-12-29T20:55:24.984Z,5.86
2022-12-29T20:58:26.634Z,5.86
2022-12-29T21:01:28.365Z,5.87
2022-12-29T21:04:56.924Z,5.87
2022-12-29T21:07:51.474Z,5.82
2022-12-29T21:10:53.038Z,5.82
2022-12-29T21:13:54.574Z,5.78
2022-12-29T21:16:56.178Z,5.77
2022-12-29T21:19:57.825Z,5.72
2022-12-29T21:23:00.542Z,5.72
2022-12-29T21:26:02.135Z,5.69
2022-12-29T21:29:04.112Z,5.65
2022-12-29T21:32:06.642Z,5.65
2022-12-29T21:35:09.022Z,5.64
2022-12-29T21:38:10.611Z,5.64
2022-12-29T21:41:14.946Z,5.62
2022-12-29T21:44:34.981Z,5.57
2022-12-29T21:47:59.342Z,5.55
2022-12-29T21:51:30.409Z,5.50
2022-12-29T21:54:50.914Z,5.54
2022-12-29T21:58:11.081Z,5.51
2022-12-29T22:01:32.095Z,5.50
2022-12-29T22:04:52.321Z,5.49
2022-12-29T22:08:12.426Z,5.44
2022-12-29T22:11:50.716Z,5.42
2022-12-29T22:14:52.242Z,5.40
2022-12-29T22:17:54.292Z,5.43
2022-12-29T22:20:55.860Z,5.42
2022-12-29T22:23:57.467Z,5.40
2022-12-29T22:26:59.269Z,5.39
2022-12-29T22:30:00.877Z,5.40
2022-12-29T22:33:02.607Z,5.41
2022-12-29T22:36:04.817Z,5.41
2022-12-29T22:39:06.378Z,5.43
2022-12-29T22:42:08.233Z,5.41
2022-12-29T22:45:10.068Z,5.41
2022-12-29T22:48:11.622Z,5.41
2022-12-29T22:51:13.889Z,5.39
2022-12-29T22:54:15.505Z,5.41
2022-12-29T22:57:17.113Z,5.43
2022-12-29T23:00:18.837Z,5.39
2022-12-29T23:03:20.888Z,5.38
2022-12-29T23:06:22.944Z,5.39
2022-12-29T23:09:24.499Z,5.37
2022-12-29T23:12:27.636Z,5.37
2022-12-29T23:15:29.235Z,5.38
2022-12-29T23:18:30.996Z,5.35
2022-12-29T23:21:32.585Z,5.34
2022-12-29T23:24:34.136Z,5.32
2022-12-29T23:27:35.936Z,5.31
2022-12-29T23:30:37.495Z,5.33
2022-12-29T23:33:39.145Z,5.34
2022-12-29T23:36:41.097Z,5.32
2022-12-29T23:39:42.649Z,5.32
2022-12-29T23:42:44.318Z,5.29
2022-12-29T23:45:50.667Z,5.27
2022-12-29T23:48:52.874Z,5.25
2022-12-29T23:51:54.471Z,5.24
2022-12-29T23:54:56.317Z,5.22
2022-12-29T23:57:57.932Z,5.23
